createdAt,value
2022-12-25T00:00:16.684Z,100288.47
2022-12-25T00:03:08.332Z,100282.50
2022-12-25T00:05:39.071Z,100280.28
2022-12-25T00:08:07.921Z,100281.75
2022-12-25T00:10:41.340Z,100271.78
2022-12-25T00:13:12.024Z,100278.28
2022-12-25T00:15:41.731Z,100286.38
2022-12-25T00:18:09.219Z,100279.03
2022-12-25T00:20:36.822Z,100283.72
2022-12-25T00:23:04.120Z,100281.97
2022-12-25T00:25:31.579Z,100287.38
2022-12-25T00:27:58.712Z,100269.53
2022-12-25T00:30:26.288Z,100292.63
2022-12-25T00:32:53.344Z,100294.34
2022-12-25T00:35:20.721Z,100307.50
2022-12-25T00:37:47.839Z,100303.53
2022-12-25T00:40:15.574Z,100300.91
2022-12-25T00:42:43.143Z,100298.06
2022-12-25T00:45:10.755Z,100294.94
2022-12-25T00:47:38.912Z,100310.41
2022-12-25T00:50:06.955Z,100288.56
2022-12-25T00:52:34.145Z,100311.75
2022-12-25T00:55:01.611Z,100312.75
2022-12-25T00:57:28.715Z,100302.47
2022-12-25T00:59:58.098Z,100320.84
2022-12-25T01:02:25.998Z,100326.22
2022-12-25T01:04:56.411Z,100332.78
2022-12-25T01:07:26.231Z,100344.19
2022-12-25T01:10:12.200Z,100331.84
2022-12-25T01:12:41.840Z,100325.72
2022-12-25T01:15:12.990Z,100323.31
2022-12-25T01:17:40.348Z,100341.63
2022-12-25T01:20:11.724Z,100333.25
2022-12-25T01:22:39.105Z,100327.91
2022-12-25T01:25:07.251Z,100332.78
2022-12-25T01:27:34.359Z,100323.69
2022-12-25T01:30:01.823Z,100307.28
2022-12-25T01:32:29.002Z,100314.34
2022-12-25T01:34:58.042Z,100314.88
2022-12-25T01:37:25.553Z,100308.84
2022-12-25T01:39:53.021Z,100307.66
2022-12-25T01:42:23.867Z,100303.47
2022-12-25T01:44:51.552Z,100309.16
2022-12-25T01:47:19.383Z,100312.50
2022-12-25T01:49:50.300Z,100307.47
2022-12-25T01:52:25.354Z,100314.19
2022-12-25T01:55:04.137Z,100296.72
2022-12-25T01:57:36.300Z,100291.38
2022-12-25T02:00:09.601Z,100305.66
2022-12-25T02:02:38.454Z,100308.50
2022-12-25T02:05:25.103Z,100318.59
2022-12-25T02:07:53.164Z,100325.66
2022-12-25T02:10:21.128Z,100300.94
2022-12-25T02:12:48.865Z,100322.97
2022-12-25T02:15:21.113Z,100310.69
2022-12-25T02:17:57.230Z,100334.91
2022-12-25T02:20:37.238Z,100336.56
2022-12-25T02:23:23.291Z,100345.59
2022-12-25T02:26:12.526Z,100358.06
2022-12-25T02:29:02.969Z,100360.22
2022-12-25T02:32:07.897Z,100367.00
2022-12-25T02:34:49.884Z,100369.03
2022-12-25T02:37:34.088Z,100372.44
2022-12-25T02:40:10.400Z,100378.63
2022-12-25T02:43:20.691Z,100378.28
2022-12-25T02:46:12.499Z,100373.91
2022-12-25T02:49:17.859Z,100372.19
2022-12-25T02:52:08.442Z,100373.34
2022-12-25T02:55:00.502Z,100373.53
2022-12-25T02:57:52.111Z,100380.13
2022-12-25T03:00:39.938Z,100374.41
2022-12-25T03:03:28.740Z,100370.28
2022-12-25T03:06:19.383Z,100366.28
2022-12-25T03:08:50.051Z,100377.38
2022-12-25T03:11:32.463Z,100376.22
2022-12-25T03:14:21.750Z,100371.22
2022-12-25T03:16:53.809Z,100371.38
2022-12-25T03:19:50.445Z,100379.31
2022-12-25T03:22:45.968Z,100383.50
2022-12-25T03:25:32.141Z,100382.31
2022-12-25T03:28:00.790Z,100371.56
2022-12-25T03:31:09.696Z,100376.75
2022-12-25T03:34:17.858Z,100375.75
2022-12-25T03:37:22.008Z,100379.78
2022-12-25T03:39:55.551Z,100382.19
2022-12-25T03:42:54.714Z,100374.09
2022-12-25T03:45:47.548Z,100384.84
2022-12-25T03:48:35.515Z,100379.13
2022-12-25T03:51:28.450Z,100389.19
2022-12-25T03:54:18.089Z,100394.44
2022-12-25T03:57:04.899Z,100392.22
2022-12-25T03:59:50.524Z,100400.63
2022-12-25T04:02:37.033Z,100397.44
2022-12-25T04:05:23.737Z,100401.97
2022-12-25T04:08:09.575Z,100404.34
2022-12-25T04:10:55.864Z,100408.75
2022-12-25T04:13:42.128Z,100408.25
2022-12-25T04:16:27.871Z,100412.09
2022-12-25T04:19:13.749Z,100413.16
2022-12-25T04:21:59.420Z,100390.91
2022-12-25T04:25:04.429Z,100404.34
2022-12-25T04:27:50.140Z,100387.22
2022-12-25T04:30:36.144Z,100396.13
2022-12-25T04:33:21.818Z,100413.97
2022-12-25T04:36:15.942Z,100415.50
2022-12-25T04:38:43.386Z,100423.22
2022-12-25T04:41:13.085Z,100423.91
2022-12-25T04:43:40.892Z,100428.59
2022-12-25T04:46:08.389Z,100419.53
2022-12-25T04:48:36.713Z,100428.78
2022-12-25T04:51:25.250Z,100429.59
2022-12-25T04:53:54.944Z,100431.75
2022-12-25T04:56:23.281Z,100423.03
2022-12-25T04:58:50.485Z,100430.25
2022-12-25T05:01:19.674Z,100431.63
2022-12-25T05:03:47.166Z,100448.78
2022-12-25T05:06:14.674Z,100432.81
2022-12-25T05:08:41.849Z,100443.22
2022-12-25T05:11:12.924Z,100449.97
2022-12-25T05:13:40.573Z,100436.69
2022-12-25T05:16:10.341Z,100444.03
2022-12-25T05:18:37.544Z,100427.44
2022-12-25T05:21:05.412Z,100441.69
2022-12-25T05:23:32.841Z,100444.03
2022-12-25T05:26:04.601Z,100447.75
2022-12-25T05:28:31.733Z,100450.81
2022-12-25T05:30:59.331Z,100454.34
2022-12-25T05:33:27.830Z,100454.88
2022-12-25T05:35:55.177Z,100454.16
2022-12-25T05:38:25.963Z,100461.59
2022-12-25T05:40:54.036Z,100460.25
2022-12-25T05:43:22.108Z,100472.53
2022-12-25T05:45:50.079Z,100467.81
2022-12-25T05:48:17.620Z,100478.22
2022-12-25T05:50:45.176Z,100490.50
2022-12-25T05:53:14.658Z,100476.72
2022-12-25T05:55:43.828Z,100476.03
2022-12-25T05:58:12.928Z,100466.63
2022-12-25T06:00:43.507Z,100469.31
2022-12-25T06:03:10.834Z,100466.97
2022-12-25T06:05:39.541Z,100475.88
2022-12-25T06:08:06.773Z,100468.44
2022-12-25T06:10:34.172Z,100477.69
2022-12-25T06:13:03.833Z,100477.69
2022-12-25T06:15:31.265Z,100472.84
2022-12-25T06:18:01.645Z,100475.03
2022-12-25T06:20:29.155Z,100486.44
2022-12-25T06:22:56.406Z,100481.41
2022-12-25T06:25:24.029Z,100485.25
2022-12-25T06:27:51.168Z,100484.75
2022-12-25T06:30:19.919Z,100495.53
2022-12-25T06:32:47.022Z,100492.88
2022-12-25T06:35:14.600Z,100487.44
2022-12-25T06:37:42.330Z,100496.22
2022-12-25T06:40:11.179Z,100504.31
2022-12-25T06:42:39.061Z,100484.41
2022-12-25T06:45:07.405Z,100488.16
2022-12-25T06:47:34.594Z,100499.44
2022-12-25T06:50:02.500Z,100505.00
2022-12-25T06:52:32.445Z,100500.28
2022-12-25T06:54:59.940Z,100497.25
2022-12-25T06:57:27.055Z,100491.13
2022-12-25T06:59:55.468Z,100508.97
2022-12-25T07:02:24.980Z,100502.59
2022-12-25T07:04:54.719Z,100504.41
2022-12-25T07:07:23.784Z,100510.22
2022-12-25T07:09:51.190Z,100522.66
2022-12-25T07:12:23.735Z,100527.34
2022-12-25T07:14:55.240Z,100526.34
2022-12-25T07:17:23.288Z,100543.53
2022-12-25T07:19:51.230Z,100539.34
2022-12-25T07:22:18.525Z,100554.47
2022-12-25T07:24:46.210Z,100550.66
2022-12-25T07:27:13.516Z,100559.44
2022-12-25T07:29:40.937Z,100570.22
2022-12-25T07:32:08.853Z,100575.31
2022-12-25T07:34:36.325Z,100585.06
2022-12-25T07:37:03.453Z,100589.75
2022-12-25T07:39:30.927Z,100574.81
2022-12-25T07:41:58.032Z,100579.09
2022-12-25T07:44:28.198Z,100581.38
2022-12-25T07:46:58.223Z,100568.69
2022-12-25T07:49:25.665Z,100565.69
2022-12-25T07:51:52.913Z,100579.81
2022-12-25T07:54:20.950Z,100580.13
2022-12-25T07:56:52.370Z,100580.34
2022-12-25T07:59:20.990Z,100572.81
2022-12-25T08:01:50.569Z,100592.13
2022-12-25T08:04:18.585Z,100590.50
2022-12-25T08:06:45.778Z,100586.84
2022-12-25T08:09:13.503Z,100583.06
2022-12-25T08:11:45.726Z,100580.25
2022-12-25T08:14:13.863Z,100583.41
2022-12-25T08:16:42.362Z,100578.97
2022-12-25T08:19:10.251Z,100585.66
2022-12-25T08:21:38.306Z,100580.66
2022-12-25T08:24:06.294Z,100587.78
2022-12-25T08:26:33.368Z,100591.78
2022-12-25T08:29:00.826Z,100599.69
2022-12-25T08:31:30.224Z,100609.22
2022-12-25T08:33:58.602Z,100597.28
2022-12-25T08:36:25.917Z,100616.63
2022-12-25T08:39:00.411Z,100607.78
2022-12-25T08:41:30.429Z,100605.81
2022-12-25T08:43:58.212Z,100591.47
2022-12-25T08:46:25.473Z,100599.31
2022-12-25T08:48:53.035Z,100599.56
2022-12-25T08:51:21.814Z,100601.34
2022-12-25T08:53:51.206Z,100604.84
2022-12-25T08:56:19.810Z,100603.16
2022-12-25T08:58:48.132Z,100602.53
2022-12-25T09:01:15.548Z,100601.19
2022-12-25T09:03:43.802Z,100615.03
2022-12-25T09:06:16.379Z,100611.16
2022-12-25T09:08:49.120Z,100615.16
2022-12-25T09:11:19.363Z,100610.75
2022-12-25T09:13:49.027Z,100608.09
2022-12-25T09:16:20.493Z,100621.59
2022-12-25T09:18:48.491Z,100622.75
2022-12-25T09:21:17.061Z,100631.78
2022-12-25T09:23:44.729Z,100629.38
2022-12-25T09:26:16.056Z,100632.53
2022-12-25T09:28:50.531Z,100622.88
2022-12-25T09:31:18.240Z,100635.50
2022-12-25T09:33:45.701Z,100625.47
2022-12-25T09:36:12.802Z,100635.50
2022-12-25T09:38:40.516Z,100644.06
2022-12-25T09:41:27.194Z,100645.75
2022-12-25T09:44:03.978Z,100636.22
2022-12-25T09:46:42.151Z,100632.47
2022-12-25T09:49:21.372Z,100643.25
2022-12-25T09:51:55.134Z,100649.13
2022-12-25T09:54:36.738Z,100656.03
2022-12-25T09:57:04.183Z,100648.31
2022-12-25T09:59:32.741Z,100658.09
2022-12-25T10:02:37.247Z,100655.19
2022-12-25T10:05:23.464Z,100660.22
2022-12-25T10:07:59.239Z,100655.56
2022-12-25T10:10:26.596Z,100656.44
2022-12-25T10:13:23.759Z,100647.34
2022-12-25T10:15:54.153Z,100648.97
2022-12-25T10:18:39.498Z,100652.97
2022-12-25T10:21:13.570Z,100638.13
2022-12-25T10:23:46.310Z,100645.31
2022-12-25T10:26:22.685Z,100638.63
2022-12-25T10:28:58.882Z,100636.34
2022-12-25T10:31:29.873Z,100646.59
2022-12-25T10:33:57.661Z,100624.81
2022-12-25T10:36:27.539Z,100638.19
2022-12-25T10:38:57.299Z,100643.16
2022-12-25T10:41:31.686Z,100630.53
2022-12-25T10:43:58.993Z,100631.75
2022-12-25T10:46:29.377Z,100619.09
2022-12-25T10:49:02.274Z,100631.47
2022-12-25T10:51:32.809Z,100626.09
2022-12-25T10:54:02.139Z,100621.69
2022-12-25T10:56:30.027Z,100621.41
2022-12-25T10:59:07.430Z,100607.69
2022-12-25T11:01:55.698Z,100604.91
2022-12-25T11:04:28.847Z,100612.19
2022-12-25T11:07:22.049Z,100613.69
2022-12-25T11:09:55.411Z,100614.53
2022-12-25T11:12:36.040Z,100615.94
2022-12-25T11:15:24.450Z,100612.38
2022-12-25T11:17:51.902Z,100620.50
2022-12-25T11:20:20.719Z,100611.50
2022-12-25T11:22:49.707Z,100599.59
2022-12-25T11:25:26.194Z,100600.28
2022-12-25T11:27:58.572Z,100604.88
2022-12-25T11:30:25.920Z,100609.22
2022-12-25T11:32:56.285Z,100607.84
2022-12-25T11:35:31.123Z,100590.34
2022-12-25T11:37:58.751Z,100588.34
2022-12-25T11:40:40.559Z,100597.22
2022-12-25T11:43:15.936Z,100590.72
2022-12-25T11:45:49.161Z,100597.00
2022-12-25T11:48:23.649Z,100582.84
2022-12-25T11:50:55.896Z,100587.47
2022-12-25T11:53:39.779Z,100590.22
2022-12-25T11:56:28.736Z,100586.50
2022-12-25T11:59:18.746Z,100596.00
2022-12-25T12:01:49.025Z,100592.16
2022-12-25T12:04:31.740Z,100587.50
2022-12-25T12:07:15.084Z,100579.44
2022-12-25T12:09:54.773Z,100581.66
2022-12-25T12:12:55.009Z,100582.78
2022-12-25T12:15:23.083Z,100581.63
2022-12-25T12:17:51.104Z,100584.09
2022-12-25T12:20:33.029Z,100574.22
2022-12-25T12:23:03.537Z,100582.00
2022-12-25T12:25:31.367Z,100574.78
2022-12-25T12:28:05.223Z,100579.78
2022-12-25T12:30:35.750Z,100573.91
2022-12-25T12:33:07.114Z,100556.56
2022-12-25T12:35:41.224Z,100567.75
2022-12-25T12:38:15.646Z,100565.66
2022-12-25T12:40:52.633Z,100561.59
2022-12-25T12:43:46.794Z,100566.72
2022-12-25T12:46:16.773Z,100564.97
2022-12-25T12:48:47.917Z,100567.31
2022-12-25T12:51:29.200Z,100563.91
2022-12-25T12:54:27.600Z,100569.22
2022-12-25T12:57:03.343Z,100563.56
2022-12-25T12:59:37.975Z,100563.84
2022-12-25T13:02:30.152Z,100564.56
2022-12-25T13:05:36.604Z,100565.25
2022-12-25T13:08:19.524Z,100542.69
2022-12-25T13:11:04.150Z,100569.25
2022-12-25T13:13:36.220Z,100566.75
2022-12-25T13:16:04.325Z,100570.34
2022-12-25T13:18:33.984Z,100571.09
2022-12-25T13:21:05.121Z,100561.19
2022-12-25T13:23:37.589Z,100564.69
2022-12-25T13:26:11.772Z,100566.03
2022-12-25T13:28:39.468Z,100566.03
2022-12-25T13:31:13.455Z,100584.72
2022-12-25T13:33:46.379Z,100576.38
2022-12-25T13:36:14.745Z,100575.69
2022-12-25T13:38:48.987Z,100586.88
2022-12-25T13:41:38.174Z,100591.25
2022-12-25T13:44:18.648Z,100591.25
2022-12-25T13:46:47.534Z,100586.13
2022-12-25T13:49:22.406Z,100589.31
2022-12-25T13:51:50.826Z,100587.50
2022-12-25T13:54:18.841Z,100590.81
2022-12-25T13:56:55.958Z,100585.72
2022-12-25T13:59:25.583Z,100593.53
2022-12-25T14:01:54.272Z,100587.16
2022-12-25T14:04:25.489Z,100592.69
2022-12-25T14:06:53.270Z,100586.69
2022-12-25T14:09:20.848Z,100576.72
2022-12-25T14:11:52.855Z,100594.28
2022-12-25T14:14:26.169Z,100587.28
2022-12-25T14:16:57.126Z,100582.91
2022-12-25T14:19:34.495Z,100577.25
2022-12-25T14:22:18.441Z,100583.75
2022-12-25T14:24:46.073Z,100586.75
2022-12-25T14:27:25.493Z,100579.63
2022-12-25T14:29:56.987Z,100595.09
2022-12-25T14:32:44.018Z,100592.25
2022-12-25T14:35:15.753Z,100582.63
2022-12-25T14:37:49.188Z,100600.88
2022-12-25T14:40:37.906Z,100598.56
2022-12-25T14:43:29.909Z,100590.25
2022-12-25T14:46:24.170Z,100594.38
2022-12-25T14:49:07.331Z,100579.06
2022-12-25T14:54:38.998Z,100595.25
2022-12-25T14:57:07.131Z,100599.66
2022-12-25T14:59:34.577Z,100602.97
2022-12-25T15:02:02.200Z,100592.94
2022-12-25T15:04:54.041Z,100594.22
2022-12-25T15:07:31.692Z,100604.56
2022-12-25T15:10:28.706Z,100600.66
2022-12-25T15:12:46.366Z,100616.22
2022-12-25T15:15:13.523Z,100615.19
2022-12-25T15:17:42.085Z,100617.28
2022-12-25T15:20:37.468Z,100627.66
2022-12-25T15:23:21.024Z,100621.94
2022-12-25T15:29:00.907Z,100633.50
2022-12-25T15:31:46.712Z,100631.28
2022-12-25T15:34:21.071Z,100631.53
2022-12-25T15:36:48.899Z,100617.97
2022-12-25T15:39:16.357Z,100619.88
2022-12-25T15:42:02.263Z,100623.59
2022-12-25T15:44:29.931Z,100624.59
2022-12-25T15:46:57.993Z,100617.19
2022-12-25T15:49:25.428Z,100616.91
2022-12-25T15:51:52.572Z,100619.19
2022-12-25T15:54:19.989Z,100624.78
2022-12-25T15:56:52.214Z,100632.13
2022-12-25T15:59:21.214Z,100610.50
2022-12-25T16:06:05.103Z,100629.97
2022-12-25T16:08:32.553Z,100640.25
2022-12-25T16:11:00.604Z,100642.56
2022-12-25T16:13:31.284Z,100643.94
2022-12-25T16:15:58.862Z,100638.75
2022-12-25T16:18:26.136Z,100627.75
2022-12-25T16:20:55.117Z,100612.09
2022-12-25T16:23:22.800Z,100634.09
2022-12-25T16:25:50.737Z,100626.25
2022-12-25T16:28:18.956Z,100637.56
2022-12-25T16:30:46.457Z,100633.00
2022-12-25T16:33:15.666Z,100629.19
2022-12-25T16:35:44.323Z,100629.50
2022-12-25T16:38:11.904Z,100622.63
2022-12-25T16:40:40.014Z,100634.44
2022-12-25T16:43:07.361Z,100614.72
2022-12-25T16:45:39.796Z,100632.59
2022-12-25T16:48:08.788Z,100624.31
2022-12-25T16:50:39.437Z,100628.16
2022-12-25T16:53:07.903Z,100619.75
2022-12-25T16:55:37.812Z,100626.84
2022-12-25T16:58:06.027Z,100623.16
2022-12-25T17:00:33.759Z,100620.47
2022-12-25T17:03:01.636Z,100625.50
2022-12-25T17:05:29.551Z,100628.88
2022-12-25T17:07:56.705Z,100622.13
2022-12-25T17:10:24.162Z,100613.00
2022-12-25T17:12:51.296Z,100622.03
2022-12-25T17:15:18.887Z,100620.06
2022-12-25T17:17:45.962Z,100616.69
2022-12-25T17:20:13.656Z,100610.81
2022-12-25T17:22:41.090Z,100624.78
2022-12-25T17:25:09.564Z,100620.56
2022-12-25T17:27:37.713Z,100595.19
2022-12-25T17:30:05.688Z,100603.75
2022-12-25T17:32:34.429Z,100600.56
2022-12-25T17:35:03.641Z,100605.44
2022-12-25T17:37:32.141Z,100612.13
2022-12-25T17:39:59.640Z,100615.66
2022-12-25T17:42:26.765Z,100592.44
2022-12-25T17:44:54.385Z,100620.06
2022-12-25T17:47:21.555Z,100630.22
2022-12-25T17:49:50.422Z,100620.25
2022-12-25T17:52:17.822Z,100621.09
2022-12-25T17:54:45.617Z,100625.28
2022-12-25T17:57:13.100Z,100618.88
2022-12-25T17:59:41.670Z,100623.09
2022-12-25T18:02:09.309Z,100612.09
2022-12-25T18:04:37.172Z,100605.03
2022-12-25T18:07:04.742Z,100616.81
2022-12-25T18:09:32.290Z,100607.44
2022-12-25T18:12:02.313Z,100601.81
2022-12-25T18:14:29.746Z,100603.69
2022-12-25T18:16:57.848Z,100586.09
2022-12-25T18:19:25.327Z,100591.41
2022-12-25T18:21:52.683Z,100600.25
2022-12-25T18:24:21.178Z,100594.63
2022-12-25T18:26:49.606Z,100599.00
2022-12-25T18:29:18.304Z,100585.34
2022-12-25T18:31:45.888Z,100578.97
2022-12-25T18:34:13.513Z,100581.53
2022-12-25T18:36:40.626Z,100574.63
2022-12-25T18:39:26.567Z,100587.78
2022-12-25T18:42:12.383Z,100590.47
2022-12-25T18:44:40.112Z,100590.13
2022-12-25T18:47:08.627Z,100592.47
2022-12-25T18:49:36.150Z,100585.75
2022-12-25T18:52:49.553Z,100596.84
2022-12-25T18:54:53.138Z,100585.41
2022-12-25T18:57:20.480Z,100576.34
2022-12-25T18:59:48.001Z,100577.91
2022-12-25T19:02:16.487Z,100589.06
2022-12-25T19:04:44.598Z,100574.28
2022-12-25T19:07:12.670Z,100591.59
2022-12-25T19:09:40.335Z,100586.72
2022-12-25T19:12:07.523Z,100589.44
2022-12-25T19:14:47.477Z,100578.69
2022-12-25T19:17:16.032Z,100586.09
2022-12-25T19:19:43.735Z,100580.69
2022-12-25T19:22:10.918Z,100586.06
2022-12-25T19:24:39.005Z,100583.19
2022-12-25T19:27:06.215Z,100580.03
2022-12-25T19:29:33.642Z,100583.69
2022-12-25T19:32:00.893Z,100568.72
2022-12-25T19:34:28.397Z,100566.88
2022-12-25T19:36:55.661Z,100574.13
2022-12-25T19:39:24.002Z,100561.66
2022-12-25T19:41:51.076Z,100555.81
2022-12-25T19:44:18.728Z,100566.22
2022-12-25T19:46:45.838Z,100557.78
2022-12-25T19:49:14.072Z,100561.47
2022-12-25T19:51:44.531Z,100553.38
2022-12-25T19:54:15.260Z,100553.03
2022-12-25T19:56:44.090Z,100553.72
2022-12-25T19:59:13.163Z,100547.72
2022-12-25T20:01:40.772Z,100539.28
2022-12-25T20:04:10.674Z,100537.28
2022-12-25T20:06:39.756Z,100527.50
2022-12-25T20:09:11.391Z,100533.84
2022-12-25T20:11:38.754Z,100510.81
2022-12-25T20:14:08.056Z,100526.16
2022-12-25T20:16:39.187Z,100517.75
2022-12-25T20:19:07.486Z,100530.16
2022-12-25T20:21:34.639Z,100530.53
2022-12-25T20:24:02.229Z,100537.81
2022-12-25T20:26:31.044Z,100543.19
2022-12-25T20:28:59.197Z,100529.88
2022-12-25T20:31:29.582Z,100527.84
2022-12-25T20:34:00.021Z,100529.84
2022-12-25T20:36:32.651Z,100535.22
2022-12-25T20:39:04.839Z,100502.56
2022-12-25T20:41:32.354Z,100525.25
2022-12-25T20:44:01.912Z,100532.31
2022-12-25T20:46:29.255Z,100541.09
2022-12-25T20:48:56.873Z,100544.28
2022-12-25T20:51:26.412Z,100535.25
2022-12-25T20:53:56.451Z,100536.38
2022-12-25T20:56:26.859Z,100514.84
2022-12-25T20:58:58.872Z,100527.97
2022-12-25T21:01:30.892Z,100525.13
2022-12-25T21:04:17.236Z,100511.84
2022-12-25T21:06:44.430Z,100517.22
2022-12-25T21:09:13.479Z,100499.91
2022-12-25T21:11:40.618Z,100521.97
2022-12-25T21:14:09.172Z,100505.31
2022-12-25T21:16:38.598Z,100520.75
2022-12-25T21:19:06.131Z,100512.38
2022-12-25T21:21:33.591Z,100521.97
2022-12-25T21:24:01.133Z,100510.50
2022-12-25T21:26:31.521Z,100519.69
2022-12-25T21:29:02.236Z,100522.09
2022-12-25T21:31:30.782Z,100526.31
2022-12-25T21:33:58.327Z,100528.00
2022-12-25T21:36:27.564Z,100518.06
2022-12-25T21:38:59.854Z,100520.91
2022-12-25T21:41:29.018Z,100526.78
2022-12-25T21:43:59.122Z,100517.84
2022-12-25T21:46:27.280Z,100508.63
2022-12-25T21:48:55.507Z,100522.06
2022-12-25T21:51:49.918Z,100517.34
2022-12-25T21:54:19.642Z,100521.34
2022-12-25T21:56:48.543Z,100522.78
2022-12-25T21:59:21.096Z,100525.16
2022-12-25T22:01:49.872Z,100526.50
2022-12-25T22:04:20.528Z,100517.91
2022-12-25T22:07:06.541Z,100526.50
2022-12-25T22:09:34.486Z,100529.56
2022-12-25T22:12:20.617Z,100510.34
2022-12-25T22:14:54.961Z,100512.72
2022-12-25T22:17:50.577Z,100506.31
2022-12-25T22:20:30.856Z,100517.09
2022-12-25T22:22:58.547Z,100522.13
2022-12-25T22:25:26.572Z,100524.31
2022-12-25T22:27:54.294Z,100529.56
2022-12-25T22:30:26.646Z,100537.97
2022-12-25T22:32:53.850Z,100507.69
2022-12-25T22:35:21.963Z,100516.09
2022-12-25T22:37:49.824Z,100529.88
2022-12-25T22:40:19.057Z,100508.69
2022-12-25T22:42:46.767Z,100520.66
2022-12-25T22:45:14.469Z,100522.81
2022-12-25T22:47:41.940Z,100517.78
2022-12-25T22:50:12.217Z,100520.47
2022-12-25T22:52:40.195Z,100494.91
2022-12-25T22:55:09.059Z,100511.22
2022-12-25T22:57:37.307Z,100510.06
2022-12-25T23:00:09.185Z,100511.06
2022-12-25T23:02:37.096Z,100507.34
2022-12-25T23:05:05.076Z,100506.00
2022-12-25T23:07:32.271Z,100508.00
2022-12-25T23:09:59.755Z,100508.19
2022-12-25T23:12:45.484Z,100519.13
2022-12-25T23:15:12.962Z,100523.69
2022-12-25T23:17:58.633Z,100511.41
2022-12-25T23:20:46.316Z,100494.22
2022-12-25T23:23:34.830Z,100494.72
2022-12-25T23:26:09.467Z,100482.75
2022-12-25T23:28:57.418Z,100485.63
2022-12-25T23:31:32.761Z,100477.22
2022-12-25T23:34:00.589Z,100483.78
2022-12-25T23:36:28.485Z,100484.31
2022-12-25T23:38:55.648Z,100476.75
2022-12-25T23:41:23.308Z,100481.09
2022-12-25T23:43:50.858Z,100483.44
2022-12-25T23:46:18.283Z,100473.34
2022-12-25T23:48:48.165Z,100479.72
2022-12-25T23:51:17.211Z,100479.72
2022-12-25T23:53:44.559Z,100479.34
2022-12-25T23:56:12.145Z,100480.19
2022-12-25T23:58:40.392Z,100469.59
